createdAt,value
2022-11-02T00:01:56.301Z,62.99
2022-11-02T00:03:58.511Z,63.24
2022-11-02T00:06:00.815Z,62.79
2022-11-02T00:08:02.955Z,62.82
2022-11-02T00:10:05.541Z,63.07
2022-11-02T00:12:08.097Z,62.66
2022-11-02T00:14:10.726Z,62.53
2022-11-02T00:16:15.939Z,62.43
2022-11-02T00:18:17.995Z,62.77
2022-11-02T00:20:23.782Z,62.60
2022-11-02T00:22:27.205Z,62.38
2022-11-02T00:24:31.337Z,62.56
2022-11-02T00:26:36.342Z,62.44
2022-11-02T00:28:38.426Z,62.20
2022-11-02T00:30:41.284Z,62.34
2022-11-02T00:32:43.632Z,62.49
2022-11-02T00:34:45.643Z,62.51
2022-11-02T00:36:51.740Z,62.67
2022-11-02T00:38:56.544Z,62.90
2022-11-02T00:41:00.553Z,63.33
2022-11-02T00:43:02.791Z,63.39
2022-11-02T00:45:05.469Z,63.66
2022-11-02T00:47:07.714Z,63.41
2022-11-02T00:49:10.155Z,63.09
2022-11-02T00:51:12.269Z,63.15
2022-11-02T00:53:17.126Z,63.24
2022-11-02T00:55:26.373Z,63.02
2022-11-02T00:57:31.817Z,62.57
2022-11-02T00:59:33.984Z,62.40
2022-11-02T01:01:37.082Z,62.16
2022-11-02T01:03:42.437Z,62.50
2022-11-02T01:09:47.059Z,62.41
2022-11-02T01:11:49.147Z,62.18
2022-11-02T01:14:41.715Z,62.73
2022-11-02T01:18:52.531Z,62.12
2022-11-02T01:20:58.780Z,62.27
2022-11-02T01:23:03.262Z,62.23
2022-11-02T01:25:06.144Z,62.01
2022-11-02T01:27:08.474Z,62.71
2022-11-02T01:29:11.765Z,62.65
2022-11-02T01:31:14.413Z,63.29
2022-11-02T01:33:16.436Z,62.92
2022-11-02T01:35:21.628Z,63.06
2022-11-02T01:37:23.675Z,63.17
2022-11-02T01:39:25.703Z,63.08
2022-11-02T01:41:27.759Z,62.80
2022-11-02T01:43:33.262Z,63.32
2022-11-02T01:45:35.739Z,62.94
2022-11-02T01:47:41.480Z,63.25
2022-11-02T01:49:46.690Z,63.16
2022-11-02T01:52:05.952Z,63.11
2022-11-02T01:54:16.249Z,63.14
2022-11-02T01:58:28.953Z,62.78
2022-11-02T02:00:31.521Z,62.50
2022-11-02T02:02:40.155Z,63.04
2022-11-02T02:04:44.274Z,63.44
2022-11-02T02:06:46.635Z,63.34
2022-11-02T02:08:51.633Z,63.64
2022-11-02T02:10:57.880Z,63.18
2022-11-02T02:13:01.108Z,62.79
2022-11-02T02:15:04.214Z,62.92
2022-11-02T02:17:12.609Z,62.80
2022-11-02T02:19:44.856Z,63.10
2022-11-02T02:21:52.834Z,62.64
2022-11-02T02:24:16.562Z,63.19
2022-11-02T02:26:59.776Z,63.72
2022-11-02T02:29:10.997Z,63.22
2022-11-02T02:31:24.771Z,63.77
2022-11-02T02:33:37.535Z,63.56
2022-11-02T02:36:03.461Z,63.56
2022-11-02T02:38:11.848Z,63.59
2022-11-02T02:40:19.588Z,63.22
2022-11-02T02:42:34.094Z,63.85
2022-11-02T02:44:39.440Z,63.21
2022-11-02T02:46:56.257Z,63.86
2022-11-02T02:49:01.586Z,63.81
2022-11-02T02:51:12.837Z,64.01
2022-11-02T02:53:16.796Z,63.63
2022-11-02T02:55:27.023Z,63.98
2022-11-02T02:57:32.626Z,64.44
2022-11-02T02:59:46.422Z,64.46
2022-11-02T03:01:50.112Z,63.96
2022-11-02T03:03:52.395Z,64.44
2022-11-02T03:06:07.531Z,64.49
2022-11-02T03:08:17.010Z,63.94
2022-11-02T03:10:43.359Z,64.20
2022-11-02T03:13:07.054Z,63.89
2022-11-02T03:15:16.304Z,63.80
2022-11-02T03:17:20.867Z,63.89
2022-11-02T03:19:44.701Z,63.83
2022-11-02T03:21:53.429Z,63.93
2022-11-02T03:24:24.898Z,63.51
2022-11-02T03:26:48.775Z,63.59
2022-11-02T03:28:54.034Z,63.77
2022-11-02T03:31:20.154Z,63.82
2022-11-02T03:33:28.117Z,63.79
2022-11-02T03:35:42.504Z,63.12
2022-11-02T03:38:07.438Z,63.44
2022-11-02T03:40:19.198Z,63.92
2022-11-02T03:42:26.184Z,64.26
2022-11-02T03:44:32.324Z,64.23
2022-11-02T03:46:38.712Z,64.23
2022-11-02T03:48:49.218Z,64.80
2022-11-02T03:50:55.180Z,64.34
2022-11-02T03:53:06.717Z,64.13
2022-11-02T03:55:17.615Z,64.07
2022-11-02T03:57:24.182Z,63.84
2022-11-02T03:59:31.819Z,63.63
2022-11-02T04:01:42.301Z,63.99
2022-11-02T04:03:46.481Z,63.83
2022-11-02T04:05:48.711Z,63.29
2022-11-02T04:08:14.837Z,64.00
2022-11-02T04:10:18.710Z,63.65
2022-11-02T04:12:39.453Z,63.81
2022-11-02T04:14:43.055Z,63.85
2022-11-02T04:17:11.305Z,63.74
2022-11-02T04:19:30.108Z,64.33
2022-11-02T04:21:38.251Z,64.50
2022-11-02T04:23:58.951Z,64.17
2022-11-02T04:26:01.266Z,64.44
2022-11-02T04:28:18.154Z,64.05
2022-11-02T04:30:24.358Z,64.64
2022-11-02T04:32:51.644Z,64.16
2022-11-02T04:34:53.877Z,64.23
2022-11-02T04:36:56.324Z,64.63
2022-11-02T04:38:59.109Z,64.52
2022-11-02T04:41:31.237Z,65.29
2022-11-02T04:43:34.207Z,65.03
2022-11-02T04:45:36.635Z,64.92
2022-11-02T04:47:39.065Z,65.07
2022-11-02T04:49:41.238Z,64.73
2022-11-02T04:51:49.905Z,64.78
2022-11-02T04:53:58.183Z,64.69
2022-11-02T04:56:00.247Z,64.82
2022-11-02T04:58:03.274Z,64.70
2022-11-02T05:00:07.918Z,64.66
2022-11-02T05:02:10.244Z,65.06
2022-11-02T05:04:13.407Z,64.56
2022-11-02T05:06:16.758Z,64.65
2022-11-02T05:08:18.643Z,64.47
2022-11-02T05:10:20.733Z,65.05
2022-11-02T05:12:28.922Z,64.59
2022-11-02T05:14:31.917Z,64.87
2022-11-02T05:16:35.710Z,64.81
2022-11-02T05:18:39.651Z,64.44
2022-11-02T05:20:42.838Z,64.23
2022-11-02T05:22:45.297Z,64.50
2022-11-02T05:24:49.111Z,64.23
2022-11-02T05:26:53.899Z,64.65
2022-11-02T05:28:58.418Z,64.27
2022-11-02T05:31:01.795Z,64.38
2022-11-02T05:33:06.578Z,64.62
2022-11-02T05:35:10.087Z,64.38
2022-11-02T05:37:14.003Z,64.67
2022-11-02T05:39:16.063Z,64.64
2022-11-02T05:41:18.213Z,64.85
2022-11-02T05:43:20.457Z,64.79
2022-11-02T05:45:23.719Z,65.33
2022-11-02T05:47:26.448Z,65.19
2022-11-02T05:49:28.251Z,65.37
2022-11-02T05:51:30.135Z,65.51
2022-11-02T05:53:34.117Z,65.47
2022-11-02T05:56:02.220Z,65.41
2022-11-02T05:58:04.508Z,65.45
2022-11-02T06:00:07.535Z,65.61
2022-11-02T06:02:14.014Z,65.52
2022-11-02T06:04:15.967Z,65.65
2022-11-02T06:06:18.137Z,65.81
2022-11-02T06:08:23.183Z,66.33
2022-11-02T06:10:25.290Z,66.08
2022-11-02T06:12:27.106Z,65.69
2022-11-02T06:14:28.903Z,66.27
2022-11-02T06:16:31.314Z,66.01
2022-11-02T06:18:33.580Z,65.81
2022-11-02T06:20:35.471Z,66.18
2022-11-02T06:22:46.782Z,66.36
2022-11-02T06:24:48.562Z,65.98
2022-11-02T06:26:50.413Z,66.08
2022-11-02T06:28:52.610Z,66.01
2022-11-02T06:30:55.305Z,66.36
2022-11-02T06:32:59.441Z,66.43
2022-11-02T06:35:03.687Z,65.86
2022-11-02T06:37:05.420Z,66.18
2022-11-02T06:39:07.560Z,66.15
2022-11-02T06:41:09.860Z,66.09
2022-11-02T06:43:17.599Z,66.35
2022-11-02T06:45:19.732Z,66.12
2022-11-02T06:47:21.427Z,66.09
2022-11-02T06:49:23.606Z,66.45
2022-11-02T06:51:25.440Z,66.27
2022-11-02T06:53:27.283Z,66.36
2022-11-02T06:55:29.277Z,66.29
2022-11-02T06:57:36.668Z,66.67
2022-11-02T06:59:38.549Z,66.18
2022-11-02T07:01:43.091Z,65.82
2022-11-02T07:03:45.184Z,66.00
2022-11-02T07:05:52.092Z,66.17
2022-11-02T07:07:54.906Z,66.11
2022-11-02T07:09:57.025Z,65.84
2022-11-02T07:11:58.835Z,66.11
2022-11-02T07:14:00.655Z,65.69
2022-11-02T07:16:02.441Z,65.77
2022-11-02T07:18:06.244Z,65.86
2022-11-02T07:20:10.698Z,65.79
2022-11-02T07:22:12.572Z,66.34
2022-11-02T07:24:14.592Z,65.86
2022-11-02T07:26:16.819Z,65.92
2022-11-02T07:28:19.395Z,65.98
2022-11-02T07:30:21.509Z,66.13
2022-11-02T07:32:23.831Z,66.15
2022-11-02T07:34:25.759Z,66.16
2022-11-02T07:36:27.705Z,66.02
2022-11-02T07:38:29.881Z,65.90
2022-11-02T07:40:34.496Z,66.16
2022-11-02T07:42:36.722Z,65.59
2022-11-02T07:44:41.376Z,65.63
2022-11-02T07:46:43.933Z,65.89
2022-11-02T07:48:47.182Z,65.53
2022-11-02T07:50:48.975Z,65.75
2022-11-02T07:52:56.252Z,65.77
2022-11-02T07:54:58.114Z,65.46
2022-11-02T07:57:00.009Z,65.64
2022-11-02T07:59:01.899Z,65.59
2022-11-02T08:01:04.107Z,65.60
2022-11-02T08:03:08.465Z,65.72
2022-11-02T08:05:10.587Z,65.68
2022-11-02T08:07:12.689Z,65.90
2022-11-02T08:09:15.845Z,65.72
2022-11-02T08:11:17.700Z,66.16
2022-11-02T08:13:21.667Z,66.11
2022-11-02T08:15:24.436Z,66.13
2022-11-02T08:17:29.512Z,66.23
2022-11-02T08:19:31.517Z,65.99
2022-11-02T08:21:33.349Z,65.86
2022-11-02T08:23:35.206Z,65.98
2022-11-02T08:25:45.885Z,65.94
2022-11-02T08:27:47.957Z,65.94
2022-11-02T08:29:49.943Z,65.82
2022-11-02T08:31:52.100Z,65.75
2022-11-02T08:33:54.471Z,65.51
2022-11-02T08:36:02.977Z,65.79
2022-11-02T08:38:05.950Z,65.83
2022-11-02T08:40:08.905Z,65.70
2022-11-02T08:42:10.913Z,65.46
2022-11-02T08:44:13.247Z,65.69
2022-11-02T08:46:16.752Z,65.45
2022-11-02T08:48:19.291Z,65.57
2022-11-02T08:50:21.956Z,65.34
2022-11-02T08:52:24.384Z,65.09
2022-11-02T08:54:26.487Z,65.15
2022-11-02T08:56:28.745Z,65.09
2022-11-02T08:58:33.123Z,64.73
2022-11-02T09:00:35.941Z,64.37
2022-11-02T09:02:38.476Z,64.70
2022-11-02T09:04:40.663Z,64.80
2022-11-02T09:06:45.343Z,64.77
2022-11-02T09:08:47.356Z,64.54
2022-11-02T09:10:51.951Z,64.68
2022-11-02T09:12:54.589Z,64.28
2022-11-02T09:14:56.522Z,64.40
2022-11-02T09:16:58.282Z,64.30
2022-11-02T09:19:00.332Z,64.18
2022-11-02T09:21:03.788Z,64.49
2022-11-02T09:23:05.654Z,64.45
2022-11-02T09:25:08.031Z,64.14
2022-11-02T09:27:35.302Z,64.46
2022-11-02T09:29:37.318Z,64.38
2022-11-02T09:31:39.500Z,64.44
2022-11-02T09:33:43.960Z,64.28
2022-11-02T09:35:48.626Z,64.46
2022-11-02T09:37:51.184Z,64.47
2022-11-02T09:39:53.499Z,64.38
2022-11-02T09:42:28.331Z,64.79
2022-11-02T09:45:00.805Z,64.74
2022-11-02T09:47:55.759Z,64.85
2022-11-02T09:49:28.645Z,64.73
2022-11-02T09:51:37.841Z,64.98
2022-11-02T09:54:21.587Z,65.01
2022-11-02T09:56:27.464Z,64.84
2022-11-02T09:58:36.928Z,65.09
2022-11-02T10:00:42.017Z,64.91
2022-11-02T10:02:49.545Z,64.86
2022-11-02T10:05:16.510Z,64.94
2022-11-02T10:07:43.370Z,64.81
2022-11-02T10:10:00.086Z,64.41
2022-11-02T10:12:24.175Z,64.51
2022-11-02T10:14:38.247Z,64.58
2022-11-02T10:16:52.666Z,64.46
2022-11-02T10:18:55.278Z,64.42
2022-11-02T10:21:02.684Z,64.45
2022-11-02T10:23:09.711Z,64.46
2022-11-02T10:25:16.455Z,64.59
2022-11-02T10:27:32.290Z,64.60
2022-11-02T10:29:43.656Z,64.27
2022-11-02T10:31:46.553Z,64.50
2022-11-02T10:33:50.010Z,64.30
2022-11-02T10:36:18.184Z,64.52
2022-11-02T10:38:35.207Z,64.52
2022-11-02T10:41:03.201Z,64.04
2022-11-02T10:43:20.309Z,64.39
2022-11-02T10:45:59.659Z,63.97
2022-11-02T10:48:01.939Z,64.12
2022-11-02T10:50:35.524Z,64.19
2022-11-02T10:52:39.837Z,64.15
2022-11-02T10:54:42.238Z,63.79
2022-11-02T10:56:47.247Z,64.01
2022-11-02T10:59:14.494Z,64.31
2022-11-02T11:01:17.037Z,64.25
2022-11-02T11:03:19.957Z,64.13
2022-11-02T11:05:22.023Z,64.18
2022-11-02T11:07:27.944Z,64.27
2022-11-02T11:09:42.925Z,64.41
2022-11-02T11:12:03.160Z,64.42
2022-11-02T11:19:40.943Z,63.99
2022-11-02T11:21:43.680Z,64.26
2022-11-02T11:23:46.077Z,63.80
2022-11-02T11:26:02.124Z,63.98
2022-11-02T11:28:22.800Z,63.92
2022-11-02T11:30:59.481Z,64.14
2022-11-02T11:32:54.698Z,64.17
2022-11-02T11:35:06.934Z,64.26
2022-11-02T11:37:15.744Z,63.65
2022-11-02T11:39:28.875Z,63.29
2022-11-02T11:41:33.470Z,63.61
2022-11-02T11:43:38.627Z,63.42
2022-11-02T11:45:52.999Z,63.47
2022-11-02T11:48:02.275Z,63.11
2022-11-02T11:50:13.933Z,63.40
2022-11-02T11:52:31.943Z,63.28
2022-11-02T11:54:34.270Z,63.68
2022-11-02T11:56:36.499Z,63.74
2022-11-02T11:58:50.937Z,63.23
2022-11-02T12:01:12.449Z,62.18
2022-11-02T12:03:16.353Z,62.91
2022-11-02T12:05:20.968Z,62.90
2022-11-02T12:07:25.728Z,62.78
2022-11-02T12:09:36.763Z,62.85
2022-11-02T12:11:41.528Z,62.92
2022-11-02T12:14:25.828Z,62.24
2022-11-02T12:16:34.401Z,61.95
2022-11-02T12:18:56.812Z,62.50
2022-11-02T12:21:17.309Z,62.62
2022-11-02T12:23:39.711Z,62.43
2022-11-02T12:26:18.585Z,62.66
2022-11-02T12:28:40.903Z,62.77
2022-11-02T12:31:04.067Z,62.83
2022-11-02T12:33:17.284Z,62.98
2022-11-02T12:35:41.635Z,62.65
2022-11-02T12:38:08.184Z,62.51
2022-11-02T12:40:13.088Z,62.35
2022-11-02T12:42:35.810Z,62.64
2022-11-02T12:45:09.681Z,62.52
2022-11-02T12:47:37.091Z,62.86
2022-11-02T12:49:52.834Z,62.63
2022-11-02T12:52:28.401Z,62.91
2022-11-02T12:54:54.388Z,62.96
2022-11-02T12:56:56.891Z,63.04
2022-11-02T12:59:00.538Z,63.16
2022-11-02T13:01:18.328Z,63.03
2022-11-02T13:03:29.093Z,63.01
2022-11-02T13:05:39.928Z,63.10
2022-11-02T13:07:50.571Z,63.15
2022-11-02T13:10:08.427Z,62.77
2022-11-02T13:12:15.206Z,62.50
2022-11-02T13:14:22.406Z,62.86
2022-11-02T13:17:02.507Z,63.10
2022-11-02T13:19:07.142Z,62.86
2022-11-02T13:21:13.943Z,62.76
2022-11-02T13:23:26.877Z,62.69
2022-11-02T13:25:37.701Z,62.88
2022-11-02T13:27:50.767Z,63.09
2022-11-02T13:29:56.705Z,62.92
2022-11-02T13:32:07.022Z,62.56
2022-11-02T13:34:15.528Z,62.83
2022-11-02T13:36:18.849Z,62.92
2022-11-02T13:38:39.384Z,62.71
2022-11-02T13:40:59.823Z,62.63
2022-11-02T13:43:10.882Z,62.95
2022-11-02T13:45:38.681Z,62.72
2022-11-02T13:47:46.781Z,62.71
2022-11-02T13:49:53.995Z,62.95
2022-11-02T13:52:13.860Z,63.15
2022-11-02T13:54:40.619Z,63.17
2022-11-02T13:56:43.597Z,63.03
2022-11-02T13:58:54.097Z,62.87
2022-11-02T14:01:01.604Z,62.97
2022-11-02T14:03:28.130Z,63.02
2022-11-02T14:05:36.004Z,63.25
2022-11-02T14:07:41.900Z,63.11
2022-11-02T14:09:45.367Z,62.86
2022-11-02T14:11:49.921Z,62.95
2022-11-02T14:13:52.253Z,62.75
2022-11-02T14:15:54.335Z,62.84
2022-11-02T14:17:57.010Z,62.85
2022-11-02T14:20:37.231Z,62.90
2022-11-02T14:22:39.028Z,62.90
2022-11-02T14:24:41.060Z,62.52
2022-11-02T14:27:13.655Z,62.92
2022-11-02T14:29:47.340Z,62.85
2022-11-02T14:31:57.311Z,63.00
2022-11-02T14:34:25.191Z,63.15
2022-11-02T14:36:55.357Z,62.88
2022-11-02T14:39:17.779Z,63.01
2022-11-02T14:41:33.056Z,63.35
2022-11-02T14:44:12.373Z,63.55
2022-11-02T14:46:53.356Z,63.39
2022-11-02T14:48:58.957Z,63.07
2022-11-02T14:51:12.196Z,62.90
2022-11-02T14:53:25.783Z,63.02
2022-11-02T14:55:31.561Z,62.95
2022-11-02T14:57:42.984Z,62.86
2022-11-02T14:59:49.325Z,62.85
2022-11-02T15:02:00.030Z,63.03
2022-11-02T15:04:08.082Z,62.91
2022-11-02T15:06:25.655Z,63.22
2022-11-02T15:08:32.256Z,63.10
2022-11-02T15:10:43.397Z,62.95
2022-11-02T15:12:47.930Z,63.15
2022-11-02T15:14:49.996Z,63.00
2022-11-02T15:16:54.426Z,63.18
2022-11-02T15:19:35.002Z,63.35
2022-11-02T15:21:37.833Z,63.04
2022-11-02T15:24:04.782Z,63.15
2022-11-02T15:26:12.402Z,63.11
2022-11-02T15:28:17.936Z,63.34
2022-11-02T15:30:27.797Z,62.88
2022-11-02T15:32:35.337Z,63.18
2022-11-02T15:34:49.996Z,63.42
2022-11-02T15:36:52.506Z,63.38
2022-11-02T15:38:55.331Z,63.35
2022-11-02T15:41:17.402Z,63.21
2022-11-02T15:46:12.296Z,63.05
2022-11-02T15:48:51.584Z,62.89
2022-11-02T15:51:14.280Z,62.25
2022-11-02T15:53:25.376Z,62.95
2022-11-02T15:56:11.973Z,63.12
2022-11-02T15:58:33.010Z,62.96
2022-11-02T16:00:35.219Z,62.92
2022-11-02T16:02:41.413Z,62.64
2022-11-02T16:04:50.401Z,63.18
2022-11-02T16:06:53.655Z,62.92
2022-11-02T16:09:01.599Z,62.97
2022-11-02T16:11:13.971Z,63.01
2022-11-02T16:13:20.973Z,63.09
2022-11-02T16:15:23.174Z,63.02
2022-11-02T16:17:28.191Z,63.00
2022-11-02T16:19:30.704Z,63.18
2022-11-02T16:21:35.555Z,63.06
2022-11-02T16:23:40.453Z,62.81
2022-11-02T16:25:50.469Z,62.91
2022-11-02T16:27:52.808Z,63.00
2022-11-02T16:29:54.939Z,63.42
2022-11-02T16:31:58.332Z,63.46
2022-11-02T16:34:23.081Z,63.40
2022-11-02T16:36:45.505Z,63.98
2022-11-02T16:39:25.235Z,63.50
2022-11-02T16:41:32.197Z,63.12
2022-11-02T16:43:36.267Z,62.86
2022-11-02T16:45:43.364Z,62.79
2022-11-02T16:47:46.850Z,62.72
2022-11-02T16:49:51.927Z,62.58
2022-11-02T16:51:56.707Z,62.53
2022-11-02T16:54:18.440Z,62.46
2022-11-02T16:56:27.814Z,62.76
2022-11-02T16:58:29.964Z,62.94
2022-11-02T17:00:37.487Z,63.19
2022-11-02T17:02:42.118Z,63.65
2022-11-02T17:04:47.089Z,63.39
2022-11-02T17:06:54.010Z,63.57
2022-11-02T17:08:56.287Z,63.43
2022-11-02T17:11:01.136Z,63.49
2022-11-02T17:13:07.357Z,63.79
2022-11-02T17:15:21.087Z,63.84
2022-11-02T17:17:29.974Z,64.13
2022-11-02T17:19:40.853Z,63.75
2022-11-02T17:21:44.518Z,63.98
2022-11-02T17:23:48.366Z,63.92
2022-11-02T17:29:46.182Z,63.49
2022-11-02T17:31:56.525Z,63.33
2022-11-02T17:34:02.511Z,63.53
2022-11-02T17:36:07.528Z,63.93
2022-11-02T17:38:10.260Z,64.04
2022-11-02T17:40:13.182Z,63.99
2022-11-02T17:42:35.269Z,63.80
2022-11-02T17:44:37.375Z,63.70
2022-11-02T17:46:41.729Z,63.87
2022-11-02T17:48:46.957Z,64.13
2022-11-02T17:50:53.337Z,64.45
2022-11-02T17:52:57.626Z,64.15
2022-11-02T17:54:59.597Z,63.97
2022-11-02T17:57:02.383Z,64.43
2022-11-02T17:59:04.477Z,64.52
2022-11-02T18:01:07.589Z,64.42
2022-11-02T18:03:16.053Z,64.26
2022-11-02T18:05:25.764Z,63.54
2022-11-02T18:07:27.833Z,63.99
2022-11-02T18:09:30.438Z,64.10
2022-11-02T18:11:32.344Z,64.21
2022-11-02T18:13:34.405Z,64.57
2022-11-02T18:15:36.763Z,64.33
2022-11-02T18:17:39.218Z,64.18
2022-11-02T18:19:44.367Z,63.81
2022-11-02T18:21:46.466Z,64.05
2022-11-02T18:23:48.973Z,64.04
2022-11-02T18:25:53.925Z,63.96
2022-11-02T18:28:01.493Z,64.34
2022-11-02T18:38:10.763Z,64.24
2022-11-02T18:40:15.257Z,64.37
2022-11-02T18:42:17.376Z,64.00
2022-11-02T18:44:19.937Z,64.29
2022-11-02T18:46:24.331Z,64.21
2022-11-02T18:48:29.195Z,64.81
2022-11-02T18:50:31.151Z,64.58
2022-11-02T18:52:33.518Z,64.35
2022-11-02T18:54:35.584Z,64.33
2022-11-02T18:56:37.615Z,64.60
2022-11-02T18:58:39.905Z,64.69
2022-11-02T19:00:42.095Z,64.23
2022-11-02T19:02:44.100Z,64.39
2022-11-02T19:04:46.035Z,64.24
2022-11-02T19:07:06.504Z,64.42
2022-11-02T19:09:20.443Z,64.46
2022-11-02T19:11:23.151Z,64.48
2022-11-02T19:13:25.163Z,64.66
2022-11-02T19:15:27.042Z,64.67
2022-11-02T19:17:29.403Z,64.46
2022-11-02T19:19:31.682Z,64.38
2022-11-02T19:21:33.442Z,64.51
2022-11-02T19:23:35.369Z,64.40
2022-11-02T19:25:37.402Z,64.28
2022-11-02T19:27:39.758Z,64.24
2022-11-02T19:29:41.808Z,64.19
2022-11-02T19:31:44.371Z,64.56
2022-11-02T19:34:39.794Z,64.63
2022-11-02T19:36:43.562Z,64.69
2022-11-02T19:38:45.380Z,64.74
2022-11-02T19:40:47.299Z,64.82
2022-11-02T19:42:49.417Z,64.93
2022-11-02T19:44:51.281Z,64.67
2022-11-02T19:46:53.452Z,64.83
2022-11-02T19:48:57.987Z,64.91
2022-11-02T19:51:17.593Z,64.77
2022-11-02T19:53:22.419Z,64.56
2022-11-02T19:55:28.762Z,64.74
2022-11-02T19:57:33.309Z,64.93
2022-11-02T19:59:35.575Z,65.08
2022-11-02T20:01:42.688Z,65.07
2022-11-02T20:03:46.600Z,64.70
2022-11-02T20:05:48.933Z,64.74
2022-11-02T20:07:52.067Z,64.90
2022-11-02T20:09:57.195Z,64.90
2022-11-02T20:12:03.147Z,64.95
2022-11-02T20:14:05.869Z,65.21
2022-11-02T20:16:09.312Z,65.21
2022-11-02T20:18:19.354Z,65.22
2022-11-02T20:20:22.270Z,65.26
2022-11-02T20:22:24.533Z,65.08
2022-11-02T20:24:28.761Z,64.84
2022-11-02T20:26:34.061Z,65.15
2022-11-02T20:28:41.166Z,64.88
2022-11-02T20:30:43.674Z,64.67
2022-11-02T20:32:46.175Z,65.09
2022-11-02T20:34:48.240Z,65.15
2022-11-02T20:36:50.786Z,65.15
2022-11-02T20:38:54.427Z,65.35
2022-11-02T20:41:06.511Z,64.99
2022-11-02T20:43:08.591Z,64.87
2022-11-02T20:45:10.990Z,64.87
2022-11-02T20:47:13.117Z,65.11
2022-11-02T20:49:22.712Z,65.32
2022-11-02T20:51:37.340Z,65.11
2022-11-02T20:53:40.306Z,65.11
2022-11-02T20:55:45.082Z,65.47
2022-11-02T20:57:50.959Z,65.76
2022-11-02T20:59:53.292Z,65.39
2022-11-02T21:01:55.595Z,65.41
2022-11-02T21:03:57.801Z,65.16
2022-11-02T21:06:05.558Z,65.48
2022-11-02T21:08:07.811Z,65.28
2022-11-02T21:10:10.758Z,65.34
2022-11-02T21:12:34.463Z,65.32
2022-11-02T21:14:38.880Z,65.43
2022-11-02T21:16:41.097Z,65.67
2022-11-02T21:18:43.243Z,65.58
2022-11-02T21:20:45.716Z,65.67
2022-11-02T21:22:50.487Z,65.83
2022-11-02T21:24:52.765Z,65.51
2022-11-02T21:26:55.291Z,65.72
2022-11-02T21:28:57.295Z,65.91
2022-11-02T21:31:08.039Z,65.54
2022-11-02T21:33:10.283Z,65.48
2022-11-02T21:35:12.146Z,65.37
2022-11-02T21:37:17.029Z,65.51
2022-11-02T21:39:20.055Z,65.59
2022-11-02T21:41:29.125Z,65.49
2022-11-02T21:43:32.548Z,65.39
2022-11-02T21:45:37.853Z,65.57
2022-11-02T21:47:40.606Z,65.19
2022-11-02T21:49:42.805Z,65.52
2022-11-02T21:51:45.201Z,65.77
2022-11-02T21:53:48.570Z,65.79
2022-11-02T21:56:02.711Z,65.86
2022-11-02T21:58:04.792Z,65.73
2022-11-02T22:00:07.408Z,65.74
2022-11-02T22:02:14.632Z,65.65
2022-11-02T22:04:25.411Z,65.67
2022-11-02T22:06:31.318Z,65.47
2022-11-02T22:08:42.551Z,65.74
2022-11-02T22:10:44.827Z,65.19
2022-11-02T22:13:05.655Z,65.65
2022-11-02T22:15:08.730Z,65.61
2022-11-02T22:17:22.082Z,65.92
2022-11-02T22:19:31.213Z,65.88
2022-11-02T22:21:36.841Z,65.91
2022-11-02T22:23:39.970Z,66.09
2022-11-02T22:25:41.926Z,65.50
2022-11-02T22:27:44.084Z,65.67
2022-11-02T22:29:46.382Z,65.91
2022-11-02T22:31:48.690Z,65.84
2022-11-02T22:33:53.273Z,65.80
2022-11-02T22:35:55.182Z,65.63
2022-11-02T22:38:15.877Z,65.52
2022-11-02T22:40:20.551Z,65.48
2022-11-02T22:42:22.628Z,65.64
2022-11-02T22:44:24.725Z,65.79
2022-11-02T22:46:27.744Z,65.63
2022-11-02T22:48:33.174Z,65.69
2022-11-02T22:50:35.315Z,65.73
2022-11-02T22:52:37.439Z,65.59
2022-11-02T22:54:39.725Z,65.74
2022-11-02T22:56:43.225Z,65.80
2022-11-02T22:58:47.165Z,66.00
2022-11-02T23:00:49.419Z,65.86
2022-11-02T23:02:51.867Z,65.55
2022-11-02T23:04:53.955Z,65.89
2022-11-02T23:06:56.030Z,66.10
2022-11-02T23:08:59.202Z,65.60
2022-11-02T23:11:20.918Z,65.85
2022-11-02T23:13:23.551Z,65.80
2022-11-02T23:15:25.786Z,66.15
2022-11-02T23:17:27.969Z,66.25
2022-11-02T23:19:30.190Z,66.17
2022-11-02T23:21:32.825Z,65.81
2022-11-02T23:23:53.631Z,65.99
2022-11-02T23:25:57.491Z,66.08
2022-11-02T23:28:18.501Z,65.89
2022-11-02T23:30:39.034Z,65.87
2022-11-02T23:32:42.100Z,65.83
2022-11-02T23:35:04.119Z,65.82
2022-11-02T23:37:06.706Z,65.62
2022-11-02T23:39:27.338Z,65.98
2022-11-02T23:41:38.923Z,65.86
2022-11-02T23:43:41.370Z,65.87
2022-11-02T23:45:43.325Z,66.06
2022-11-02T23:47:57.283Z,66.06
2022-11-02T23:49:59.313Z,66.18
2022-11-02T23:52:40.175Z,66.28
2022-11-02T23:55:01.291Z,66.02
2022-11-02T23:57:03.498Z,66.28
2022-11-02T23:59:06.711Z,66.38
